Accueil
METAR-TAF:

METAR-TAF

Aéroports :

Base aérienne de Batajnica

Batajnica, Serbie

latitude: 44-56-07N, longitude: 020-15-27E, altitude: 86 m

Observation

Le bulletin a été fait il y a 38 minutes, à 08:30 UTC
Vent 12 kt de est
Température 10°C
Humidité 82%
Pression 1012 hPa
Visibilité 10 km ou plus
pas de nuages en-dessous de 1500 mètres et pas de cumulonimbus.

METAR: LYBT 050830Z 09012KT CAVOK 10/07 Q1012 NOSIG

Heure: 10:08 (09:08 UTC)

Prévision

Le bulletin a été fait il y a 4 heures et 8 minutes, à 05:00 UTC
Prévision valable du 05 à 06 UTC au 06 à 06 UTC
Vent 16 kt de est
Visibilité 10 km ou plus
pas de nuages en-dessous de 1500 mètres et pas de cumulonimbus.
Temporairement
du 05 à 09 UTC au 05 à 20 UTC
Vent 18 kt de est avec des rafales jusqu'à 28 kt

TAF: LYBT 050500Z 0506/0606 10016KT CAVOK TX12/0513Z TN08/0605Z TEMPO 0509/0520 10018G28KT

Observations et prévisions météorologiques de plus de 4000 aéroports (messages METAR et TAF).

Les stations disponibles sont représentées par des disques jaunes et rouges sur la carte.

Passer la souris dessus pour voir le nom de la station.

Cliquer dessus pour voir les observations et prévisions météorologiques.

Pour changer de carte: cliquez sur les boutons verts avec une croix noire pour zoomer, sur le bouton vert avec un tiret pour effectuer un zoom arrière, ou sur les flèches vertes pour les cartes adjacentes.


METAR-TAF: